createdAt,value
2022-11-14T00:07:37.268Z,5.12
2022-11-14T00:17:38.575Z,5.15
2022-11-14T00:27:37.626Z,5.02
2022-11-14T00:37:38.881Z,5.15
2022-11-14T00:47:38.110Z,4.96
2022-11-14T00:57:39.993Z,4.86
2022-11-14T01:07:38.427Z,4.86
2022-11-14T01:17:40.036Z,4.91
2022-11-14T01:27:38.916Z,5.00
2022-11-14T01:37:41.127Z,5.03
2022-11-14T01:47:39.176Z,5.21
2022-11-14T01:57:39.549Z,5.33
2022-11-14T02:07:39.635Z,5.33
2022-11-14T02:17:39.929Z,5.36
2022-11-14T02:27:39.971Z,5.39
2022-11-14T02:37:40.403Z,5.28
2022-11-14T02:47:40.642Z,5.13
2022-11-14T02:57:40.551Z,5.20
2022-11-14T03:07:40.773Z,5.35
2022-11-14T03:17:41.145Z,5.20
2022-11-14T03:27:41.327Z,5.33
2022-11-14T03:37:41.704Z,5.38
2022-11-14T03:47:41.653Z,5.45
2022-11-14T03:57:41.881Z,5.40
2022-11-14T04:07:41.906Z,5.54
2022-11-14T04:17:43.265Z,5.45
2022-11-14T04:27:42.295Z,5.39
2022-11-14T04:37:42.605Z,5.30
2022-11-14T04:47:42.642Z,5.67
2022-11-14T04:57:42.976Z,6.09
2022-11-14T05:07:43.006Z,6.37
2022-11-14T05:17:43.355Z,5.97
2022-11-14T05:27:43.484Z,6.21
2022-11-14T05:37:43.722Z,8.43
2022-11-14T05:47:43.796Z,8.71
2022-11-14T05:57:43.995Z,8.99
2022-11-14T06:07:44.074Z,8.86
2022-11-14T06:17:44.351Z,8.99
2022-11-14T06:27:44.391Z,8.20
2022-11-14T06:37:44.644Z,9.90
2022-11-14T06:47:44.878Z,11.94
2022-11-14T06:57:45.211Z,11.72
2022-11-14T07:07:45.237Z,11.80
2022-11-14T07:17:45.575Z,12.04
2022-11-14T07:27:45.622Z,12.37
2022-11-14T07:37:45.943Z,12.90
2022-11-14T07:47:45.962Z,13.25
2022-11-14T07:57:49.158Z,12.77
2022-11-14T08:07:46.321Z,11.78
2022-11-14T08:17:46.619Z,12.93
2022-11-14T08:27:46.648Z,13.14
2022-11-14T08:37:46.976Z,11.99
2022-11-14T08:47:46.996Z,11.99
2022-11-14T08:57:49.569Z,12.47
2022-11-14T09:07:47.446Z,13.28
2022-11-14T09:17:47.694Z,12.38
2022-11-14T09:27:47.915Z,12.60
2022-11-14T09:37:48.179Z,12.16
2022-11-14T09:47:48.402Z,12.31
2022-11-14T09:57:48.636Z,13.25
2022-11-14T10:07:48.860Z,12.60
2022-11-14T10:17:49.209Z,10.74
2022-11-14T10:27:55.328Z,9.99
2022-11-14T10:37:50.496Z,10.01
2022-11-14T10:47:50.317Z,10.07
2022-11-14T10:57:49.967Z,10.18
2022-11-14T11:07:50.245Z,10.47
2022-11-14T11:17:50.261Z,10.99
2022-11-14T11:27:50.520Z,11.54
2022-11-14T11:37:50.740Z,11.51
2022-11-14T11:47:50.979Z,11.25
2022-11-14T11:57:51.268Z,11.32
2022-11-14T12:07:51.355Z,11.27
2022-11-14T12:17:51.377Z,11.36
2022-11-14T12:27:53.940Z,11.62
2022-11-14T12:37:55.635Z,11.61
2022-11-14T12:47:52.062Z,12.01
2022-11-14T12:57:52.380Z,12.01
2022-11-14T13:07:52.411Z,12.24
2022-11-14T13:17:52.749Z,13.32
2022-11-14T13:28:07.332Z,14.06
2022-11-14T13:37:56.359Z,15.84
2022-11-14T13:47:53.307Z,16.08
2022-11-14T13:57:53.348Z,16.04
2022-11-14T14:07:53.466Z,15.75
2022-11-14T14:17:53.510Z,15.56
2022-11-14T14:27:53.857Z,15.49
2022-11-14T14:38:02.927Z,15.01
2022-11-14T14:47:53.949Z,14.84
2022-11-14T14:57:54.310Z,14.62
2022-11-14T15:07:54.338Z,14.58
2022-11-14T15:17:54.606Z,14.29
2022-11-14T15:27:54.612Z,14.04
2022-11-14T15:37:54.936Z,13.92
2022-11-14T15:47:54.977Z,14.14
2022-11-14T15:58:20.966Z,14.09
2022-11-14T22:09:08.161Z,11.43
2022-11-14T22:19:08.369Z,11.19
2022-11-14T22:29:08.625Z,11.28
2022-11-14T22:39:08.855Z,11.15
2022-11-14T22:49:09.119Z,11.00
2022-11-14T22:59:09.362Z,11.06
2022-11-14T23:09:09.756Z,10.88
2022-11-14T23:19:11.614Z,10.66
2022-11-14T23:29:12.177Z,10.71
2022-11-14T23:39:10.292Z,10.64
2022-11-14T23:49:10.488Z,10.51
2022-11-14T23:59:10.656Z,10.27
